sensor_id;sensor_type;location;lat;lon;timestamp;P1;durP1;ratioP1;P2;durP2;ratioP2
13891;SDS011;7016;48.172;8.058;2023-04-15T00:00:05;4.63;;;2.15;;
13891;SDS011;7016;48.172;8.058;2023-04-15T00:02:31;8.07;;;2.03;;
13891;SDS011;7016;48.172;8.058;2023-04-15T00:04:57;6.80;;;2.20;;
13891;SDS011;7016;48.172;8.058;2023-04-15T00:07:23;5.20;;;2.03;;
13891;SDS011;7016;48.172;8.058;2023-04-15T00:09:48;8.00;;;2.40;;
13891;SDS011;7016;48.172;8.058;2023-04-15T00:12:19;8.30;;;2.38;;
13891;SDS011;7016;48.172;8.058;2023-04-15T00:14:45;8.63;;;2.58;;
13891;SDS011;7016;48.172;8.058;2023-04-15T00:17:11;6.07;;;1.77;;
13891;SDS011;7016;48.172;8.058;2023-04-15T00:19:37;8.55;;;1.90;;
13891;SDS011;7016;48.172;8.058;2023-04-15T00:22:03;5.15;;;1.58;;
13891;SDS011;7016;48.172;8.058;2023-04-15T00:24:28;4.75;;;1.92;;
13891;SDS011;7016;48.172;8.058;2023-04-15T00:26:55;6.57;;;1.88;;
13891;SDS011;7016;48.172;8.058;2023-04-15T00:29:22;4.47;;;2.25;;
13891;SDS011;7016;48.172;8.058;2023-04-15T00:31:48;8.63;;;2.22;;
13891;SDS011;7016;48.172;8.058;2023-04-15T00:34:13;5.35;;;2.13;;
13891;SDS011;7016;48.172;8.058;2023-04-15T00:36:39;6.35;;;1.77;;
13891;SDS011;7016;48.172;8.058;2023-04-15T00:39:05;8.63;;;2.08;;
13891;SDS011;7016;48.172;8.058;2023-04-15T00:41:31;8.38;;;2.17;;
13891;SDS011;7016;48.172;8.058;2023-04-15T00:43:58;10.63;;;2.85;;
13891;SDS011;7016;48.172;8.058;2023-04-15T00:46:25;3.38;;;1.48;;
13891;SDS011;7016;48.172;8.058;2023-04-15T00:48:53;6.82;;;1.80;;
13891;SDS011;7016;48.172;8.058;2023-04-15T00:51:19;4.22;;;2.10;;
13891;SDS011;7016;48.172;8.058;2023-04-15T00:53:44;6.30;;;1.90;;
13891;SDS011;7016;48.172;8.058;2023-04-15T00:56:10;2.67;;;1.60;;
13891;SDS011;7016;48.172;8.058;2023-04-15T00:58:36;8.82;;;1.48;;
13891;SDS011;7016;48.172;8.058;2023-04-15T01:01:02;5.03;;;1.75;;
13891;SDS011;7016;48.172;8.058;2023-04-15T01:03:28;5.65;;;1.90;;
13891;SDS011;7016;48.172;8.058;2023-04-15T01:05:55;5.80;;;1.70;;
13891;SDS011;7016;48.172;8.058;2023-04-15T01:08:30;6.40;;;2.10;;
13891;SDS011;7016;48.172;8.058;2023-04-15T01:10:55;8.25;;;1.80;;
13891;SDS011;7016;48.172;8.058;2023-04-15T01:13:22;6.78;;;1.80;;
13891;SDS011;7016;48.172;8.058;2023-04-15T01:15:49;6.55;;;2.05;;
13891;SDS011;7016;48.172;8.058;2023-04-15T01:18:16;8.10;;;2.00;;
13891;SDS011;7016;48.172;8.058;2023-04-15T01:20:42;4.68;;;1.80;;
13891;SDS011;7016;48.172;8.058;2023-04-15T01:23:08;5.50;;;1.90;;
13891;SDS011;7016;48.172;8.058;2023-04-15T01:25:34;6.25;;;1.92;;
13891;SDS011;7016;48.172;8.058;2023-04-15T01:28:01;7.93;;;1.92;;
13891;SDS011;7016;48.172;8.058;2023-04-15T01:30:27;4.75;;;1.70;;
13891;SDS011;7016;48.172;8.058;2023-04-15T01:32:53;6.28;;;1.67;;
13891;SDS011;7016;48.172;8.058;2023-04-15T01:35:20;4.60;;;1.70;;
13891;SDS011;7016;48.172;8.058;2023-04-15T01:37:46;6.93;;;1.60;;
13891;SDS011;7016;48.172;8.058;2023-04-15T01:40:13;5.57;;;1.70;;
13891;SDS011;7016;48.172;8.058;2023-04-15T01:42:39;5.50;;;1.40;;
13891;SDS011;7016;48.172;8.058;2023-04-15T01:45:05;4.25;;;1.27;;
13891;SDS011;7016;48.172;8.058;2023-04-15T01:47:31;7.47;;;1.88;;
13891;SDS011;7016;48.172;8.058;2023-04-15T01:49:57;3.10;;;1.50;;
13891;SDS011;7016;48.172;8.058;2023-04-15T01:52:23;4.93;;;1.83;;
13891;SDS011;7016;48.172;8.058;2023-04-15T01:54:49;8.35;;;2.00;;
13891;SDS011;7016;48.172;8.058;2023-04-15T01:57:15;6.07;;;1.42;;
13891;SDS011;7016;48.172;8.058;2023-04-15T01:59:41;6.28;;;1.52;;
13891;SDS011;7016;48.172;8.058;2023-04-15T02:02:07;10.52;;;2.17;;
13891;SDS011;7016;48.172;8.058;2023-04-15T02:04:32;6.03;;;1.63;;
13891;SDS011;7016;48.172;8.058;2023-04-15T02:06:58;4.05;;;1.58;;
13891;SDS011;7016;48.172;8.058;2023-04-15T02:09:24;4.70;;;1.80;;
13891;SDS011;7016;48.172;8.058;2023-04-15T02:11:51;4.43;;;1.52;;
13891;SDS011;7016;48.172;8.058;2023-04-15T02:14:18;4.53;;;1.70;;
13891;SDS011;7016;48.172;8.058;2023-04-15T02:16:43;5.22;;;1.85;;
13891;SDS011;7016;48.172;8.058;2023-04-15T02:19:09;5.57;;;2.05;;
13891;SDS011;7016;48.172;8.058;2023-04-15T02:21:35;5.78;;;1.52;;
13891;SDS011;7016;48.172;8.058;2023-04-15T02:24:01;4.85;;;1.88;;
13891;SDS011;7016;48.172;8.058;2023-04-15T02:26:27;3.80;;;1.83;;
13891;SDS011;7016;48.172;8.058;2023-04-15T02:28:56;4.35;;;1.42;;
13891;SDS011;7016;48.172;8.058;2023-04-15T02:31:21;5.85;;;1.70;;
13891;SDS011;7016;48.172;8.058;2023-04-15T02:33:47;4.68;;;1.67;;
13891;SDS011;7016;48.172;8.058;2023-04-15T02:36:13;4.63;;;1.52;;
13891;SDS011;7016;48.172;8.058;2023-04-15T02:38:39;6.15;;;1.83;;
13891;SDS011;7016;48.172;8.058;2023-04-15T02:41:06;4.50;;;1.70;;
13891;SDS011;7016;48.172;8.058;2023-04-15T02:43:32;9.32;;;1.45;;
13891;SDS011;7016;48.172;8.058;2023-04-15T02:45:58;7.60;;;1.98;;
13891;SDS011;7016;48.172;8.058;2023-04-15T02:48:24;3.55;;;1.60;;
13891;SDS011;7016;48.172;8.058;2023-04-15T02:50:50;4.35;;;2.00;;
13891;SDS011;7016;48.172;8.058;2023-04-15T02:53:16;4.80;;;1.45;;
13891;SDS011;7016;48.172;8.058;2023-04-15T02:55:42;6.80;;;1.85;;
13891;SDS011;7016;48.172;8.058;2023-04-15T02:58:08;3.80;;;1.50;;
13891;SDS011;7016;48.172;8.058;2023-04-15T03:00:34;4.20;;;1.40;;
13891;SDS011;7016;48.172;8.058;2023-04-15T03:03:02;5.28;;;1.92;;
13891;SDS011;7016;48.172;8.058;2023-04-15T03:05:29;4.45;;;1.75;;
13891;SDS011;7016;48.172;8.058;2023-04-15T03:07:55;6.18;;;1.67;;
13891;SDS011;7016;48.172;8.058;2023-04-15T03:10:21;4.93;;;1.75;;
13891;SDS011;7016;48.172;8.058;2023-04-15T03:12:47;5.68;;;1.80;;
13891;SDS011;7016;48.172;8.058;2023-04-15T03:15:13;6.53;;;2.00;;
13891;SDS011;7016;48.172;8.058;2023-04-15T03:17:39;5.07;;;1.50;;
13891;SDS011;7016;48.172;8.058;2023-04-15T03:20:05;3.95;;;1.63;;
13891;SDS011;7016;48.172;8.058;2023-04-15T03:22:32;6.53;;;1.85;;
13891;SDS011;7016;48.172;8.058;2023-04-15T03:24:57;6.35;;;1.92;;
13891;SDS011;7016;48.172;8.058;2023-04-15T03:27:23;2.58;;;1.27;;
13891;SDS011;7016;48.172;8.058;2023-04-15T03:29:50;7.88;;;4.72;;
13891;SDS011;7016;48.172;8.058;2023-04-15T03:32:16;3.80;;;1.67;;
13891;SDS011;7016;48.172;8.058;2023-04-15T03:34:42;5.65;;;1.67;;
13891;SDS011;7016;48.172;8.058;2023-04-15T03:37:08;6.53;;;1.95;;
13891;SDS011;7016;48.172;8.058;2023-04-15T03:39:34;4.53;;;1.60;;
13891;SDS011;7016;48.172;8.058;2023-04-15T03:42:00;7.07;;;1.67;;
13891;SDS011;7016;48.172;8.058;2023-04-15T03:44:26;6.18;;;1.80;;
13891;SDS011;7016;48.172;8.058;2023-04-15T03:46:51;6.55;;;1.80;;
13891;SDS011;7016;48.172;8.058;2023-04-15T03:49:17;6.30;;;1.55;;
13891;SDS011;7016;48.172;8.058;2023-04-15T03:51:44;7.75;;;1.90;;
13891;SDS011;7016;48.172;8.058;2023-04-15T03:54:10;5.90;;;2.00;;
13891;SDS011;7016;48.172;8.058;2023-04-15T03:56:37;5.80;;;1.63;;
13891;SDS011;7016;48.172;8.058;2023-04-15T03:59:02;5.68;;;1.90;;
13891;SDS011;7016;48.172;8.058;2023-04-15T04:01:28;5.22;;;1.40;;
13891;SDS011;7016;48.172;8.058;2023-04-15T04:03:54;5.50;;;1.90;;
13891;SDS011;7016;48.172;8.058;2023-04-15T04:06:20;3.92;;;1.70;;
13891;SDS011;7016;48.172;8.058;2023-04-15T04:08:46;5.95;;;1.60;;
13891;SDS011;7016;48.172;8.058;2023-04-15T04:11:11;11.55;;;1.73;;
13891;SDS011;7016;48.172;8.058;2023-04-15T04:13:37;4.75;;;1.70;;
13891;SDS011;7016;48.172;8.058;2023-04-15T04:16:03;6.50;;;1.77;;
13891;SDS011;7016;48.172;8.058;2023-04-15T04:18:29;2.97;;;1.35;;
13891;SDS011;7016;48.172;8.058;2023-04-15T04:20:57;5.68;;;1.83;;
13891;SDS011;7016;48.172;8.058;2023-04-15T04:23:24;4.03;;;1.60;;
13891;SDS011;7016;48.172;8.058;2023-04-15T04:25:50;6.93;;;2.17;;
13891;SDS011;7016;48.172;8.058;2023-04-15T04:28:16;6.47;;;2.35;;
13891;SDS011;7016;48.172;8.058;2023-04-15T04:30:42;7.80;;;2.25;;
13891;SDS011;7016;48.172;8.058;2023-04-15T04:33:08;11.55;;;2.30;;
13891;SDS011;7016;48.172;8.058;2023-04-15T04:35:33;9.80;;;2.63;;
13891;SDS011;7016;48.172;8.058;2023-04-15T04:38:01;12.98;;;2.85;;
13891;SDS011;7016;48.172;8.058;2023-04-15T04:40:28;5.07;;;2.30;;
13891;SDS011;7016;48.172;8.058;2023-04-15T04:42:53;7.63;;;2.45;;
13891;SDS011;7016;48.172;8.058;2023-04-15T04:45:19;6.97;;;2.40;;
13891;SDS011;7016;48.172;8.058;2023-04-15T04:47:45;6.47;;;2.28;;
13891;SDS011;7016;48.172;8.058;2023-04-15T04:50:11;4.82;;;1.88;;
13891;SDS011;7016;48.172;8.058;2023-04-15T04:52:37;9.57;;;2.42;;
13891;SDS011;7016;48.172;8.058;2023-04-15T04:55:03;5.28;;;2.13;;
13891;SDS011;7016;48.172;8.058;2023-04-15T04:57:29;20.70;;;7.57;;
13891;SDS011;7016;48.172;8.058;2023-04-15T04:59:55;13.95;;;4.93;;
13891;SDS011;7016;48.172;8.058;2023-04-15T05:02:21;8.23;;;2.60;;
13891;SDS011;7016;48.172;8.058;2023-04-15T05:04:47;15.52;;;6.22;;
13891;SDS011;7016;48.172;8.058;2023-04-15T05:07:14;25.35;;;10.50;;
13891;SDS011;7016;48.172;8.058;2023-04-15T05:09:40;11.40;;;4.85;;
13891;SDS011;7016;48.172;8.058;2023-04-15T05:12:06;8.57;;;4.55;;
13891;SDS011;7016;48.172;8.058;2023-04-15T05:14:33;8.93;;;3.45;;
13891;SDS011;7016;48.172;8.058;2023-04-15T05:16:59;8.73;;;4.00;;
13891;SDS011;7016;48.172;8.058;2023-04-15T05:19:24;12.75;;;5.13;;
13891;SDS011;7016;48.172;8.058;2023-04-15T05:21:50;11.32;;;3.95;;
13891;SDS011;7016;48.172;8.058;2023-04-15T05:24:16;31.30;;;15.93;;
13891;SDS011;7016;48.172;8.058;2023-04-15T05:26:42;41.83;;;19.98;;
13891;SDS011;7016;48.172;8.058;2023-04-15T05:29:08;9.95;;;4.15;;
13891;SDS011;7016;48.172;8.058;2023-04-15T05:31:33;7.03;;;2.50;;
13891;SDS011;7016;48.172;8.058;2023-04-15T05:33:59;7.30;;;3.85;;
13891;SDS011;7016;48.172;8.058;2023-04-15T05:36:25;7.03;;;3.50;;
13891;SDS011;7016;48.172;8.058;2023-04-15T05:38:52;10.10;;;4.28;;
13891;SDS011;7016;48.172;8.058;2023-04-15T05:41:18;7.63;;;3.88;;
13891;SDS011;7016;48.172;8.058;2023-04-15T05:43:44;13.40;;;5.22;;
13891;SDS011;7016;48.172;8.058;2023-04-15T05:46:09;11.40;;;5.57;;
13891;SDS011;7016;48.172;8.058;2023-04-15T05:48:35;13.57;;;5.13;;
13891;SDS011;7016;48.172;8.058;2023-04-15T05:51:01;11.32;;;5.45;;
13891;SDS011;7016;48.172;8.058;2023-04-15T05:53:26;13.38;;;6.68;;
13891;SDS011;7016;48.172;8.058;2023-04-15T05:55:52;17.48;;;7.45;;
13891;SDS011;7016;48.172;8.058;2023-04-15T05:58:18;12.93;;;6.68;;
13891;SDS011;7016;48.172;8.058;2023-04-15T06:00:43;9.40;;;5.78;;
13891;SDS011;7016;48.172;8.058;2023-04-15T06:03:10;10.27;;;4.45;;
13891;SDS011;7016;48.172;8.058;2023-04-15T06:05:36;5.65;;;3.17;;
13891;SDS011;7016;48.172;8.058;2023-04-15T06:08:02;7.18;;;3.05;;
13891;SDS011;7016;48.172;8.058;2023-04-15T06:10:28;9.95;;;2.97;;
13891;SDS011;7016;48.172;8.058;2023-04-15T06:12:54;5.18;;;2.58;;
13891;SDS011;7016;48.172;8.058;2023-04-15T06:15:20;4.93;;;2.50;;
13891;SDS011;7016;48.172;8.058;2023-04-15T06:17:46;5.40;;;2.40;;
13891;SDS011;7016;48.172;8.058;2023-04-15T06:20:12;5.70;;;2.88;;
13891;SDS011;7016;48.172;8.058;2023-04-15T06:22:38;10.07;;;3.47;;
13891;SDS011;7016;48.172;8.058;2023-04-15T06:25:04;13.43;;;3.65;;
13891;SDS011;7016;48.172;8.058;2023-04-15T06:27:32;5.57;;;3.38;;
13891;SDS011;7016;48.172;8.058;2023-04-15T06:29:57;12.32;;;4.45;;
13891;SDS011;7016;48.172;8.058;2023-04-15T06:32:23;7.60;;;3.90;;
13891;SDS011;7016;48.172;8.058;2023-04-15T06:34:49;14.82;;;6.93;;
13891;SDS011;7016;48.172;8.058;2023-04-15T06:37:15;81.45;;;33.45;;
13891;SDS011;7016;48.172;8.058;2023-04-15T06:39:41;59.30;;;26.92;;
13891;SDS011;7016;48.172;8.058;2023-04-15T06:42:07;19.40;;;9.10;;
13891;SDS011;7016;48.172;8.058;2023-04-15T06:44:33;13.88;;;7.22;;
13891;SDS011;7016;48.172;8.058;2023-04-15T06:47:01;15.77;;;7.65;;
13891;SDS011;7016;48.172;8.058;2023-04-15T06:49:27;12.43;;;6.75;;
13891;SDS011;7016;48.172;8.058;2023-04-15T06:51:52;12.25;;;6.15;;
13891;SDS011;7016;48.172;8.058;2023-04-15T06:54:18;11.98;;;5.90;;
13891;SDS011;7016;48.172;8.058;2023-04-15T06:56:44;12.40;;;5.47;;
13891;SDS011;7016;48.172;8.058;2023-04-15T06:59:10;11.13;;;6.25;;
13891;SDS011;7016;48.172;8.058;2023-04-15T07:01:36;11.82;;;5.75;;
13891;SDS011;7016;48.172;8.058;2023-04-15T07:04:02;10.70;;;5.45;;
13891;SDS011;7016;48.172;8.058;2023-04-15T07:06:29;13.48;;;5.53;;
13891;SDS011;7016;48.172;8.058;2023-04-15T07:08:54;13.63;;;5.57;;
13891;SDS011;7016;48.172;8.058;2023-04-15T07:11:21;9.18;;;5.63;;
13891;SDS011;7016;48.172;8.058;2023-04-15T07:13:47;10.60;;;5.28;;
13891;SDS011;7016;48.172;8.058;2023-04-15T07:16:12;14.23;;;5.70;;
13891;SDS011;7016;48.172;8.058;2023-04-15T07:18:38;10.07;;;4.55;;
13891;SDS011;7016;48.172;8.058;2023-04-15T07:21:04;11.43;;;5.15;;
13891;SDS011;7016;48.172;8.058;2023-04-15T07:23:29;13.57;;;4.68;;
13891;SDS011;7016;48.172;8.058;2023-04-15T07:25:57;11.45;;;5.53;;
13891;SDS011;7016;48.172;8.058;2023-04-15T07:30:55;10.30;;;4.88;;
13891;SDS011;7016;48.172;8.058;2023-04-15T07:33:21;10.75;;;4.63;;
13891;SDS011;7016;48.172;8.058;2023-04-15T07:35:47;13.52;;;5.03;;
13891;SDS011;7016;48.172;8.058;2023-04-15T07:38:14;9.48;;;4.55;;
13891;SDS011;7016;48.172;8.058;2023-04-15T07:40:43;10.23;;;4.55;;
13891;SDS011;7016;48.172;8.058;2023-04-15T07:43:09;9.77;;;4.70;;
13891;SDS011;7016;48.172;8.058;2023-04-15T07:45:35;7.57;;;4.25;;
13891;SDS011;7016;48.172;8.058;2023-04-15T07:48:01;10.82;;;4.72;;
13891;SDS011;7016;48.172;8.058;2023-04-15T07:50:27;8.73;;;4.28;;
13891;SDS011;7016;48.172;8.058;2023-04-15T07:52:53;6.68;;;3.65;;
13891;SDS011;7016;48.172;8.058;2023-04-15T07:55:18;9.75;;;4.03;;
13891;SDS011;7016;48.172;8.058;2023-04-15T07:57:47;10.43;;;4.32;;
13891;SDS011;7016;48.172;8.058;2023-04-15T08:00:13;9.57;;;4.78;;
13891;SDS011;7016;48.172;8.058;2023-04-15T08:02:40;14.52;;;5.60;;
13891;SDS011;7016;48.172;8.058;2023-04-15T08:05:07;19.25;;;6.57;;
13891;SDS011;7016;48.172;8.058;2023-04-15T08:07:35;24.13;;;7.43;;
13891;SDS011;7016;48.172;8.058;2023-04-15T08:10:01;15.25;;;5.03;;
13891;SDS011;7016;48.172;8.058;2023-04-15T08:12:27;11.65;;;4.50;;
13891;SDS011;7016;48.172;8.058;2023-04-15T08:14:53;6.13;;;2.83;;
13891;SDS011;7016;48.172;8.058;2023-04-15T08:17:20;8.02;;;2.28;;
13891;SDS011;7016;48.172;8.058;2023-04-15T08:19:46;4.55;;;2.17;;
13891;SDS011;7016;48.172;8.058;2023-04-15T08:22:12;8.02;;;2.58;;
13891;SDS011;7016;48.172;8.058;2023-04-15T08:24:38;4.68;;;1.83;;
13891;SDS011;7016;48.172;8.058;2023-04-15T08:27:04;10.23;;;2.00;;
13891;SDS011;7016;48.172;8.058;2023-04-15T08:29:33;3.08;;;1.92;;
13891;SDS011;7016;48.172;8.058;2023-04-15T08:31:59;5.85;;;2.35;;
13891;SDS011;7016;48.172;8.058;2023-04-15T08:34:26;5.13;;;1.80;;
13891;SDS011;7016;48.172;8.058;2023-04-15T08:36:52;5.57;;;1.90;;
13891;SDS011;7016;48.172;8.058;2023-04-15T08:39:18;8.50;;;1.92;;
13891;SDS011;7016;48.172;8.058;2023-04-15T08:41:45;6.38;;;2.00;;
13891;SDS011;7016;48.172;8.058;2023-04-15T08:44:12;4.32;;;2.40;;
13891;SDS011;7016;48.172;8.058;2023-04-15T08:46:38;6.07;;;2.42;;
13891;SDS011;7016;48.172;8.058;2023-04-15T08:49:08;4.85;;;1.80;;
13891;SDS011;7016;48.172;8.058;2023-04-15T08:51:37;7.45;;;3.50;;
13891;SDS011;7016;48.172;8.058;2023-04-15T08:54:07;5.32;;;2.22;;
13891;SDS011;7016;48.172;8.058;2023-04-15T08:56:33;7.65;;;2.45;;
13891;SDS011;7016;48.172;8.058;2023-04-15T08:59:01;4.97;;;2.00;;
13891;SDS011;7016;48.172;8.058;2023-04-15T09:01:27;4.20;;;1.90;;
13891;SDS011;7016;48.172;8.058;2023-04-15T09:03:53;4.03;;;1.60;;
13891;SDS011;7016;48.172;8.058;2023-04-15T09:06:21;3.33;;;1.30;;
13891;SDS011;7016;48.172;8.058;2023-04-15T09:08:48;3.97;;;1.73;;
13891;SDS011;7016;48.172;8.058;2023-04-15T09:11:14;2.55;;;1.42;;
13891;SDS011;7016;48.172;8.058;2023-04-15T09:13:42;4.82;;;1.70;;
13891;SDS011;7016;48.172;8.058;2023-04-15T09:16:07;6.35;;;1.60;;
13891;SDS011;7016;48.172;8.058;2023-04-15T09:18:34;4.88;;;1.65;;
13891;SDS011;7016;48.172;8.058;2023-04-15T09:23:32;6.40;;;2.38;;
13891;SDS011;7016;48.172;8.058;2023-04-15T09:25:59;7.10;;;2.38;;
13891;SDS011;7016;48.172;8.058;2023-04-15T09:28:29;4.68;;;2.50;;
13891;SDS011;7016;48.172;8.058;2023-04-15T09:30:58;6.50;;;3.30;;
13891;SDS011;7016;48.172;8.058;2023-04-15T09:33:25;6.18;;;2.95;;
13891;SDS011;7016;48.172;8.058;2023-04-15T09:35:56;6.90;;;3.15;;
13891;SDS011;7016;48.172;8.058;2023-04-15T09:38:23;6.05;;;2.33;;
13891;SDS011;7016;48.172;8.058;2023-04-15T09:40:48;5.38;;;2.42;;
13891;SDS011;7016;48.172;8.058;2023-04-15T09:43:14;7.18;;;2.60;;
13891;SDS011;7016;48.172;8.058;2023-04-15T09:45:48;8.82;;;2.00;;
13891;SDS011;7016;48.172;8.058;2023-04-15T09:50:42;4.70;;;2.00;;
13891;SDS011;7016;48.172;8.058;2023-04-15T09:53:15;6.28;;;1.70;;
13891;SDS011;7016;48.172;8.058;2023-04-15T09:55:48;2.97;;;1.57;;
13891;SDS011;7016;48.172;8.058;2023-04-15T09:58:18;5.70;;;2.00;;
13891;SDS011;7016;48.172;8.058;2023-04-15T10:00:46;5.05;;;1.88;;
13891;SDS011;7016;48.172;8.058;2023-04-15T10:03:14;6.20;;;2.00;;
13891;SDS011;7016;48.172;8.058;2023-04-15T10:05:53;5.20;;;2.08;;
13891;SDS011;7016;48.172;8.058;2023-04-15T10:08:21;4.63;;;2.22;;
13891;SDS011;7016;48.172;8.058;2023-04-15T10:10:49;4.53;;;2.00;;
13891;SDS011;7016;48.172;8.058;2023-04-15T10:13:25;4.07;;;2.10;;
13891;SDS011;7016;48.172;8.058;2023-04-15T10:18:27;3.53;;;1.80;;
13891;SDS011;7016;48.172;8.058;2023-04-15T10:20:53;4.38;;;1.85;;
13891;SDS011;7016;48.172;8.058;2023-04-15T10:23:19;4.57;;;1.98;;
13891;SDS011;7016;48.172;8.058;2023-04-15T10:25:48;4.78;;;1.85;;
13891;SDS011;7016;48.172;8.058;2023-04-15T10:28:15;4.25;;;2.00;;
13891;SDS011;7016;48.172;8.058;2023-04-15T10:30:41;4.90;;;1.80;;
13891;SDS011;7016;48.172;8.058;2023-04-15T10:33:08;5.07;;;2.17;;
13891;SDS011;7016;48.172;8.058;2023-04-15T10:35:35;4.03;;;1.73;;
13891;SDS011;7016;48.172;8.058;2023-04-15T10:43:51;5.53;;;1.92;;
13891;SDS011;7016;48.172;8.058;2023-04-15T10:46:22;5.55;;;1.95;;
13891;SDS011;7016;48.172;8.058;2023-04-15T10:49:08;4.72;;;2.00;;
13891;SDS011;7016;48.172;8.058;2023-04-15T10:51:52;3.88;;;1.90;;
13891;SDS011;7016;48.172;8.058;2023-04-15T10:56:51;4.50;;;1.77;;
13891;SDS011;7016;48.172;8.058;2023-04-15T10:59:36;5.78;;;1.60;;
13891;SDS011;7016;48.172;8.058;2023-04-15T11:02:06;3.22;;;1.55;;
13891;SDS011;7016;48.172;8.058;2023-04-15T11:07:34;4.60;;;1.90;;
13891;SDS011;7016;48.172;8.058;2023-04-15T11:12:46;8.55;;;2.47;;
13891;SDS011;7016;48.172;8.058;2023-04-15T11:15:48;6.10;;;2.15;;
13891;SDS011;7016;48.172;8.058;2023-04-15T11:18:17;4.78;;;1.95;;
13891;SDS011;7016;48.172;8.058;2023-04-15T11:20:53;7.32;;;1.75;;
13891;SDS011;7016;48.172;8.058;2023-04-15T11:23:39;3.95;;;2.13;;
13891;SDS011;7016;48.172;8.058;2023-04-15T11:26:11;6.20;;;1.90;;
13891;SDS011;7016;48.172;8.058;2023-04-15T11:28:38;4.53;;;1.90;;
13891;SDS011;7016;48.172;8.058;2023-04-15T11:31:06;4.60;;;1.75;;
13891;SDS011;7016;48.172;8.058;2023-04-15T11:33:36;9.60;;;2.97;;
13891;SDS011;7016;48.172;8.058;2023-04-15T11:36:26;7.20;;;1.83;;
13891;SDS011;7016;48.172;8.058;2023-04-15T11:38:53;7.43;;;2.60;;
13891;SDS011;7016;48.172;8.058;2023-04-15T11:41:20;6.35;;;2.65;;
13891;SDS011;7016;48.172;8.058;2023-04-15T11:43:46;7.00;;;1.88;;
13891;SDS011;7016;48.172;8.058;2023-04-15T11:46:12;8.82;;;2.40;;
13891;SDS011;7016;48.172;8.058;2023-04-15T11:48:41;4.75;;;2.15;;
13891;SDS011;7016;48.172;8.058;2023-04-15T11:51:08;4.07;;;2.00;;
13891;SDS011;7016;48.172;8.058;2023-04-15T11:53:56;6.10;;;2.75;;
13891;SDS011;7016;48.172;8.058;2023-04-15T11:56:22;5.60;;;2.90;;
13891;SDS011;7016;48.172;8.058;2023-04-15T11:58:53;5.90;;;2.92;;
13891;SDS011;7016;48.172;8.058;2023-04-15T12:01:45;6.78;;;3.00;;
13891;SDS011;7016;48.172;8.058;2023-04-15T12:04:27;8.30;;;3.28;;
13891;SDS011;7016;48.172;8.058;2023-04-15T12:07:03;9.30;;;3.78;;
13891;SDS011;7016;48.172;8.058;2023-04-15T12:09:30;8.85;;;3.70;;
13891;SDS011;7016;48.172;8.058;2023-04-15T12:12:02;8.27;;;3.10;;
13891;SDS011;7016;48.172;8.058;2023-04-15T12:19:23;6.15;;;2.28;;
13891;SDS011;7016;48.172;8.058;2023-04-15T12:21:59;8.90;;;2.53;;
13891;SDS011;7016;48.172;8.058;2023-04-15T12:24:33;4.78;;;2.35;;
13891;SDS011;7016;48.172;8.058;2023-04-15T12:27:06;4.45;;;2.15;;
13891;SDS011;7016;48.172;8.058;2023-04-15T12:29:33;6.97;;;1.98;;
13891;SDS011;7016;48.172;8.058;2023-04-15T12:32:07;4.97;;;2.00;;
13891;SDS011;7016;48.172;8.058;2023-04-15T12:34:34;8.48;;;2.28;;
13891;SDS011;7016;48.172;8.058;2023-04-15T12:37:04;8.35;;;1.80;;
13891;SDS011;7016;48.172;8.058;2023-04-15T12:39:40;7.00;;;2.15;;
13891;SDS011;7016;48.172;8.058;2023-04-15T12:42:07;6.55;;;1.75;;
13891;SDS011;7016;48.172;8.058;2023-04-15T12:44:34;4.63;;;1.73;;
13891;SDS011;7016;48.172;8.058;2023-04-15T12:47:00;5.88;;;2.10;;
13891;SDS011;7016;48.172;8.058;2023-04-15T12:49:27;10.27;;;3.30;;
13891;SDS011;7016;48.172;8.058;2023-04-15T12:51:54;9.07;;;3.33;;
13891;SDS011;7016;48.172;8.058;2023-04-15T12:54:21;8.05;;;2.65;;
13891;SDS011;7016;48.172;8.058;2023-04-15T12:56:47;9.38;;;3.10;;
13891;SDS011;7016;48.172;8.058;2023-04-15T12:59:14;4.90;;;2.38;;
13891;SDS011;7016;48.172;8.058;2023-04-15T13:01:42;6.10;;;2.45;;
13891;SDS011;7016;48.172;8.058;2023-04-15T13:04:09;4.13;;;2.15;;
13891;SDS011;7016;48.172;8.058;2023-04-15T13:06:35;8.30;;;2.35;;
13891;SDS011;7016;48.172;8.058;2023-04-15T13:09:02;7.28;;;1.92;;
13891;SDS011;7016;48.172;8.058;2023-04-15T13:11:28;7.35;;;2.53;;
13891;SDS011;7016;48.172;8.058;2023-04-15T13:14:01;10.38;;;2.75;;
13891;SDS011;7016;48.172;8.058;2023-04-15T13:16:29;7.15;;;1.95;;
13891;SDS011;7016;48.172;8.058;2023-04-15T13:18:55;6.07;;;1.67;;
13891;SDS011;7016;48.172;8.058;2023-04-15T13:21:23;9.15;;;2.03;;
13891;SDS011;7016;48.172;8.058;2023-04-15T13:23:52;4.15;;;1.80;;
13891;SDS011;7016;48.172;8.058;2023-04-15T13:26:19;4.47;;;1.90;;
13891;SDS011;7016;48.172;8.058;2023-04-15T13:28:45;7.35;;;1.60;;
13891;SDS011;7016;48.172;8.058;2023-04-15T13:31:11;7.82;;;2.10;;
13891;SDS011;7016;48.172;8.058;2023-04-15T13:33:36;7.88;;;1.27;;
13891;SDS011;7016;48.172;8.058;2023-04-15T13:36:02;5.30;;;1.70;;
13891;SDS011;7016;48.172;8.058;2023-04-15T13:38:28;4.88;;;1.42;;
13891;SDS011;7016;48.172;8.058;2023-04-15T13:40:54;5.55;;;1.45;;
13891;SDS011;7016;48.172;8.058;2023-04-15T13:43:20;6.18;;;1.77;;
13891;SDS011;7016;48.172;8.058;2023-04-15T13:45:46;4.53;;;1.45;;
13891;SDS011;7016;48.172;8.058;2023-04-15T13:48:12;4.82;;;1.40;;
13891;SDS011;7016;48.172;8.058;2023-04-15T13:50:38;5.90;;;1.50;;
13891;SDS011;7016;48.172;8.058;2023-04-15T13:53:03;4.68;;;1.70;;
13891;SDS011;7016;48.172;8.058;2023-04-15T13:55:29;3.10;;;1.10;;
13891;SDS011;7016;48.172;8.058;2023-04-15T13:57:55;5.80;;;1.67;;
13891;SDS011;7016;48.172;8.058;2023-04-15T14:00:21;5.50;;;1.80;;
13891;SDS011;7016;48.172;8.058;2023-04-15T14:02:47;2.65;;;1.08;;
13891;SDS011;7016;48.172;8.058;2023-04-15T14:05:13;4.47;;;1.20;;
13891;SDS011;7016;48.172;8.058;2023-04-15T14:07:38;5.05;;;1.30;;
13891;SDS011;7016;48.172;8.058;2023-04-15T14:10:04;3.72;;;1.40;;
13891;SDS011;7016;48.172;8.058;2023-04-15T14:12:30;3.45;;;1.20;;
13891;SDS011;7016;48.172;8.058;2023-04-15T14:14:56;3.08;;;0.90;;
13891;SDS011;7016;48.172;8.058;2023-04-15T14:17:22;2.33;;;1.10;;
13891;SDS011;7016;48.172;8.058;2023-04-15T14:19:48;2.78;;;1.10;;
13891;SDS011;7016;48.172;8.058;2023-04-15T14:22:13;7.75;;;1.20;;
13891;SDS011;7016;48.172;8.058;2023-04-15T14:24:39;5.15;;;1.20;;
13891;SDS011;7016;48.172;8.058;2023-04-15T14:27:05;4.10;;;1.10;;
13891;SDS011;7016;48.172;8.058;2023-04-15T14:29:32;5.22;;;1.60;;
13891;SDS011;7016;48.172;8.058;2023-04-15T14:31:58;3.20;;;0.90;;
13891;SDS011;7016;48.172;8.058;2023-04-15T14:34:24;2.03;;;0.80;;
13891;SDS011;7016;48.172;8.058;2023-04-15T14:36:50;4.60;;;1.10;;
13891;SDS011;7016;48.172;8.058;2023-04-15T14:39:19;2.72;;;1.00;;
13891;SDS011;7016;48.172;8.058;2023-04-15T14:41:45;4.60;;;1.38;;
13891;SDS011;7016;48.172;8.058;2023-04-15T14:44:11;5.05;;;1.30;;
13891;SDS011;7016;48.172;8.058;2023-04-15T14:46:37;4.32;;;1.38;;
13891;SDS011;7016;48.172;8.058;2023-04-15T14:49:04;4.70;;;1.90;;
13891;SDS011;7016;48.172;8.058;2023-04-15T14:51:31;4.10;;;1.73;;
13891;SDS011;7016;48.172;8.058;2023-04-15T14:53:56;4.20;;;1.50;;
13891;SDS011;7016;48.172;8.058;2023-04-15T14:56:22;5.05;;;1.48;;
13891;SDS011;7016;48.172;8.058;2023-04-15T14:58:48;3.78;;;1.33;;
13891;SDS011;7016;48.172;8.058;2023-04-15T15:01:14;4.70;;;1.25;;
13891;SDS011;7016;48.172;8.058;2023-04-15T15:03:40;5.63;;;1.77;;
13891;SDS011;7016;48.172;8.058;2023-04-15T15:06:05;3.75;;;1.60;;
13891;SDS011;7016;48.172;8.058;2023-04-15T15:08:31;6.80;;;1.80;;
13891;SDS011;7016;48.172;8.058;2023-04-15T15:10:57;5.75;;;1.67;;
13891;SDS011;7016;48.172;8.058;2023-04-15T15:13:22;4.38;;;1.38;;
13891;SDS011;7016;48.172;8.058;2023-04-15T15:15:49;5.45;;;1.58;;
13891;SDS011;7016;48.172;8.058;2023-04-15T15:18:15;4.55;;;1.52;;
13891;SDS011;7016;48.172;8.058;2023-04-15T15:20:42;5.82;;;1.80;;
13891;SDS011;7016;48.172;8.058;2023-04-15T15:23:08;4.88;;;1.58;;
13891;SDS011;7016;48.172;8.058;2023-04-15T15:25:34;4.35;;;1.40;;